• Join FlightAware (Why Join?)
  • Login
  • US Flag 
01:10PM EST


 

Airport Tracker/Info


-or-


 

Live Flight TrackerFlight Track Log ✈ UAL555 ✈ 21-Jul-2014 ✈ KSFO - KLAX

Flight Track Log - Related Links

Times and Time Zones

All times are in EDT time to prevent confusion due to time zone crossing. See the UAL555 flight status page for this flight to view local times or setup timezone preferences in your user account.

Time Position Orientation Groundspeed Altitude Reporting Facility
EDT Latitude Longitude Course Direction KTS MPH feet Rate Location/Type
04:46AM 37.6333 -122.3833 288° West 149 171 800  Level Northern Cal TRACON
04:47AM 37.6500 -122.4500 288° West 196 226 2,400 2,160 Climbing Northern Cal TRACON
04:48AM 37.6658 -122.5378 283° West 221 254 5,800 2,640 Climbing Oakland Center
04:49AM 37.6069 -122.5539 192° South 227 261 8,600 2,340 Climbing Oakland Center
04:50AM 37.5533 -122.4869 135° Southeast 277 319 10,600 1,500 Climbing Oakland Center
04:51AM 37.4922 -122.4039 133° Southeast 325 374 11,600 1,740 Climbing Oakland Center
04:52AM 37.4217 -122.3078 133° Southeast 369 425 14,100 2,460 Climbing Oakland Center
04:53AM 37.3497 -122.2106 133° Southeast 377 434 16,600 2,280 Climbing Oakland Center
04:54AM 37.2772 -122.1119 133° Southeast 382 440 18,700 2,040 Climbing Oakland Center
04:55AM 37.1983 -122.0150 136° Southeast 393 452 20,700 1,800 Climbing Oakland Center
04:56AM 37.1144 -121.9189 138° Southeast 405 466 22,400 1,680 Climbing Oakland Center
04:57AM 37.0297 -121.8222 138° Southeast 408 470 24,100 1,740 Climbing Oakland Center
04:58AM 36.9436 -121.7253 138° Southeast 414 476 25,900 1,500 Climbing Oakland Center
04:59AM 36.8581 -121.6278 138° Southeast 414 476 27,100 1,140 Climbing Oakland Center
05:00AM 36.7725 -121.5319 138° Southeast 426 490 28,200 900 Climbing Oakland Center
05:01AM 36.6850 -121.4286 137° Southeast 429 494 29,000 360 Climbing Oakland Center
05:02AM 36.5956 -121.3292 138° Southeast 430 495 29,000  Level Oakland Center
05:03AM 36.5081 -121.2281 137° Southeast 430 495 29,000  Level Oakland Center
05:04AM 36.4192 -121.1289 138° Southeast 430 495 29,000  Level Oakland Center
05:05AM 36.3311 -121.0294 138° Southeast 429 494 29,000  Level Oakland Center
05:06AM 36.2425 -120.9283 137° Southeast 430 495 29,000  Level Oakland Center
05:07AM 36.1533 -120.8292 138° Southeast 430 495 29,000  Level Oakland Center
05:08AM 36.0650 -120.7294 138° Southeast 430 495 29,000  Level Oakland Center
05:09AM 35.9756 -120.6300 138° Southeast 430 495 29,000  Level Oakland Center
05:10AM 35.8869 -120.5297 137° Southeast 430 495 29,000  Level Oakland Center
05:11AM 35.7981 -120.4317 138° Southeast 430 495 29,000 -60 Level Oakland Center
05:12AM 35.7083 -120.3328 138° Southeast 430 495 28,900 -60 Descending Oakland Center
05:13AM 35.6119 -120.2272 138° Southeast 428 493 28,900  Level Los Angeles Center
05:14AM 35.5231 -120.1286 138° Southeast 428 493 29,000 -120 Climbing Los Angeles Center
05:15AM 35.4389 -120.0361 138° Southeast 428 493 28,700 -600 Descending Los Angeles Center
05:16AM 35.3528 -119.9433 139° Southeast 409 471 27,800 -960 Descending Los Angeles Center
05:17AM 35.2669 -119.8494 138° Southeast 408 470 26,800 -1,020 Descending Los Angeles Center
05:18AM 35.1831 -119.7586 138° Southeast 406 467 25,800 -1,020 Descending Los Angeles Center
05:19AM 35.0994 -119.6686 139° Southeast 403 464 24,800 -960 Descending Los Angeles Center
05:20AM 35.0167 -119.5803 139° Southeast 399 459 23,900 -960 Descending Los Angeles Center
05:21AM 34.9358 -119.4931 138° Southeast 392 451 22,900 -1,020 Descending Los Angeles Center
05:22AM 34.8550 -119.4067 139° Southeast 390 449 21,900 -960 Descending Los Angeles Center
05:23AM 34.7761 -119.3225 139° Southeast 380 437 21,000 -960 Descending Los Angeles Center
05:24AM 34.6967 -119.2394 139° Southeast 379 436 20,000 -960 Descending Los Angeles Center
05:25AM 34.6236 -119.1594 138° Southeast 371 427 19,100 -1,440 Descending Los Angeles Center
05:26AM 34.5453 -119.0772 139° Southeast 368 423 17,100 -2,160 Descending Los Angeles Center
05:27AM 34.4678 -118.9975 140° Southeast 363 418 14,800 -2,340 Descending Los Angeles Center
05:28AM 34.3925 -118.9175 139° Southeast 359 413 12,500 -1,740 Descending Los Angeles Center
05:29AM 34.3078 -118.8739 157° South 336 387 11,300 -1,080 Descending Los Angeles Center
05:30AM 34.2261 -118.8617 173° South 297 342 10,400 -1,200 Descending Los Angeles Center
05:31AM 34.1542 -118.8428 168° South 269 310 8,900 -1,500 Descending Los Angeles Center
05:32AM 34.0897 -118.8000 151° Southeast 265 305 7,400 -1,500 Descending Los Angeles Center
05:33AM 34.0172 -118.7561 153° Southeast 263 303 5,900 -1,440 Descending Los Angeles Center
05:34AM 33.9542 -118.7161 152° Southeast 260 299 4,600 -1,200 Descending Los Angeles Center
05:35AM 33.9272 -118.6447 114° Southeast 248 285 3,500 -1,200 Descending Los Angeles Center
05:36AM 33.9339 -118.5639 84° East 245 282 2,200 -1,200 Descending Los Angeles Center
05:37AM 33.9406 -118.4956 83° East 206 237 1,200 -900 Descending Los Angeles Center
05:38AM 33.9453 -118.4544 82° East 144 166 500 -600 Descending Los Angeles Center
05:39AM 33.9519 -118.4069 80° East 136 157 100 -420 Descending Los Angeles Center